Time;durP1;ratioP1;P1;durP2;ratioP2;P2;SDS_P1;SDS_P2;PMS_P1;PMS_P2;Temp;Humidity;BMP_temperature;BMP_pressure;BME280_temperature;BME280_humidity;BME280_pressure;Samples;Min_cycle;Max_cycle;Signal;HPM_P1;HPM_P2
2024/02/10 00:01:07;;;;;;;13.30;6.35;;;9.70;99.90;;;;;;5022441;28;20065;-87
2024/02/10 00:03:35;;;;;;;11.45;6.03;;;9.70;99.90;;;;;;5027270;28;20116;-86
2024/02/10 00:06:01;;;;;;;12.70;7.00;;;9.80;99.90;;;;;;5026989;28;20023;-87
2024/02/10 00:08:27;;;;;;;11.93;6.72;;;9.80;99.90;;;;;;5023944;28;20025;-86
2024/02/10 00:10:55;;;;;;;12.52;6.80;;;9.80;99.90;;;;;;5024327;28;20045;-87
2024/02/10 00:13:20;;;;;;;13.88;7.32;;;9.70;99.90;;;;;;5021563;28;20028;-86
2024/02/10 00:15:46;;;;;;;11.05;6.85;;;9.80;99.90;;;;;;5024967;28;20030;-87
2024/02/10 00:18:12;;;;;;;15.60;7.93;;;9.80;99.90;;;;;;5038869;28;20033;-87
2024/02/10 00:20:38;;;;;;;12.25;6.88;;;9.70;99.90;;;;;;5034678;28;20021;-87
2024/02/10 00:23:04;;;;;;;17.20;7.45;;;9.80;99.90;;;;;;5034222;28;20020;-86
2024/02/10 00:25:31;;;;;;;15.43;8.13;;;9.80;99.90;;;;;;5028277;28;20029;-86
2024/02/10 00:28:00;;;;;;;13.35;7.20;;;9.80;99.90;;;;;;5030742;28;20497;-85
2024/02/10 00:30:27;;;;;;;13.43;6.78;;;9.70;99.90;;;;;;5023442;28;20021;-87
2024/02/10 00:32:53;;;;;;;12.90;7.97;;;9.70;99.90;;;;;;5032156;28;20120;-87
2024/02/10 00:35:22;;;;;;;12.82;7.20;;;9.70;99.90;;;;;;5031350;28;20118;-86
2024/02/10 00:37:49;;;;;;;15.15;7.05;;;9.80;99.90;;;;;;5029013;28;20468;-85
2024/02/10 00:40:15;;;;;;;13.13;7.53;;;9.80;99.90;;;;;;5023886;28;20021;-88
2024/02/10 00:42:40;;;;;;;16.02;7.50;;;9.70;99.90;;;;;;5032999;28;20022;-86
2024/02/10 00:45:07;;;;;;;13.63;7.35;;;9.70;99.90;;;;;;5038548;28;20017;-86
2024/02/10 00:47:34;;;;;;;17.98;7.72;;;9.80;99.90;;;;;;5027730;28;20484;-86
2024/02/10 00:50:01;;;;;;;11.23;7.50;;;9.70;99.90;;;;;;5045510;28;20477;-87
2024/02/10 00:52:27;;;;;;;11.30;6.90;;;9.70;99.90;;;;;;5031045;28;20021;-87
2024/02/10 00:54:53;;;;;;;12.52;6.85;;;9.70;99.90;;;;;;5022771;28;20048;-87
2024/02/10 00:57:19;;;;;;;13.23;7.15;;;9.80;99.90;;;;;;5033003;28;20543;-87
2024/02/10 00:59:45;;;;;;;11.30;6.93;;;9.70;99.90;;;;;;5026968;28;20049;-86
2024/02/10 01:02:20;;;;;;;9.63;6.22;;;9.70;99.90;;;;;;5027737;28;20053;-87
2024/02/10 01:04:47;;;;;;;12.90;6.72;;;9.70;99.90;;;;;;5023385;28;20459;-86
2024/02/10 01:07:15;;;;;;;16.48;7.18;;;9.70;99.90;;;;;;5048170;28;20438;-88
2024/02/10 01:09:46;;;;;;;14.40;6.00;;;9.80;99.90;;;;;;5027011;28;20017;-88
2024/02/10 01:12:12;;;;;;;11.32;6.57;;;9.70;99.90;;;;;;5025845;28;20071;-87
2024/02/10 01:14:40;;;;;;;12.52;6.30;;;9.80;99.90;;;;;;5035657;28;20145;-87
2024/02/10 01:17:13;;;;;;;12.90;6.35;;;9.80;99.90;;;;;;5024782;28;20472;-87
2024/02/10 01:19:49;;;;;;;13.52;6.45;;;9.70;99.90;;;;;;5023264;28;20042;-87
2024/02/10 01:22:17;;;;;;;9.60;6.15;;;9.80;99.90;;;;;;5023985;28;20021;-87
2024/02/10 01:24:45;;;;;;;11.55;6.50;;;9.80;99.90;;;;;;5033514;28;20033;-87
2024/02/10 01:27:16;;;;;;;12.63;7.18;;;9.80;99.90;;;;;;5029487;28;20085;-87
2024/02/10 01:29:46;;;;;;;9.52;6.45;;;9.80;99.90;;;;;;5023981;28;20541;-88
2024/02/10 01:32:19;;;;;;;;;;;9.70;99.90;;;;;;5027996;28;20468;-87
2024/02/10 01:34:45;;;;;;;10.90;5.47;;;9.80;99.90;;;;;;5025964;28;19914;-87
2024/02/10 01:37:12;;;;;;;12.93;6.47;;;9.80;99.90;;;;;;5020838;28;20056;-88
2024/02/10 01:39:38;;;;;;;13.20;7.18;;;9.70;99.90;;;;;;5024916;28;20034;-86
2024/02/10 01:42:04;;;;;;;13.43;6.25;;;9.70;99.90;;;;;;5028121;28;20113;-87
2024/02/10 01:44:30;;;;;;;11.63;6.47;;;9.70;99.90;;;;;;5028996;28;20032;-87
2024/02/10 01:46:55;;;;;;;9.63;5.63;;;9.70;99.90;;;;;;5021991;28;20467;-87
2024/02/10 01:49:21;;;;;;;10.80;6.72;;;9.80;99.90;;;;;;5024188;28;20026;-88
2024/02/10 01:51:46;;;;;;;12.55;5.78;;;9.80;99.90;;;;;;5022435;28;20022;-88
2024/02/10 01:54:12;;;;;;;16.35;6.15;;;9.70;99.90;;;;;;5029693;28;20408;-87
2024/02/10 01:56:39;;;;;;;11.35;5.80;;;9.80;99.90;;;;;;5034689;28;20030;-87
2024/02/10 01:59:07;;;;;;;13.70;5.68;;;9.70;99.90;;;;;;5028468;28;20550;-87
2024/02/10 02:01:35;;;;;;;12.73;6.10;;;9.80;99.90;;;;;;5022552;28;20026;-87
2024/02/10 02:04:04;;;;;;;12.23;6.25;;;9.80;99.90;;;;;;5020472;28;20079;-87
2024/02/10 02:06:33;;;;;;;11.20;6.07;;;9.80;99.90;;;;;;5027157;28;20117;-87
2024/02/10 02:09:00;;;;;;;11.35;6.80;;;9.70;99.90;;;;;;5029507;28;20043;-88
2024/02/10 02:11:28;;;;;;;14.25;7.03;;;9.80;99.90;;;;;;5028021;28;20022;-86
2024/02/10 02:13:58;;;;;;;17.15;7.10;;;9.80;99.90;;;;;;5028494;28;20385;-87
2024/02/10 02:16:26;;;;;;;13.05;7.13;;;9.80;99.90;;;;;;5020357;28;20080;-87
2024/02/10 02:18:51;;;;;;;15.68;6.50;;;9.70;99.90;;;;;;5025103;28;20025;-87
2024/02/10 02:21:17;;;;;;;12.90;6.90;;;9.70;99.90;;;;;;5027707;28;20112;-87
2024/02/10 02:23:44;;;;;;;13.57;6.43;;;9.70;99.90;;;;;;5031496;28;20436;-88
2024/02/10 02:26:09;;;;;;;9.70;5.68;;;9.70;99.90;;;;;;5031119;28;20112;-88
2024/02/10 02:28:35;;;;;;;11.95;7.18;;;9.70;99.90;;;;;;5028095;28;20105;-87
2024/02/10 02:31:03;;;;;;;18.45;7.18;;;9.80;99.90;;;;;;5035630;28;20545;-87
2024/02/10 02:33:31;;;;;;;11.95;5.72;;;9.80;99.90;;;;;;5025896;28;20124;-88
2024/02/10 02:35:57;;;;;;;13.50;6.82;;;9.80;99.90;;;;;;5025435;28;20040;-86
2024/02/10 02:38:23;;;;;;;14.55;6.70;;;9.70;99.90;;;;;;5035558;28;20033;-88
2024/02/10 02:40:49;;;;;;;11.05;6.32;;;9.70;99.90;;;;;;5030699;28;20037;-88
2024/02/10 02:43:15;;;;;;;10.25;5.97;;;9.80;99.90;;;;;;5034327;28;20029;-87
2024/02/10 02:45:43;;;;;;;17.45;6.28;;;9.70;99.90;;;;;;5026926;28;20025;-87
2024/02/10 02:48:10;;;;;;;14.27;6.95;;;9.70;99.90;;;;;;5030402;28;20025;-86
2024/02/10 02:50:38;;;;;;;13.52;6.93;;;9.70;99.90;;;;;;5031133;28;20395;-86
2024/02/10 02:53:03;;;;;;;11.00;6.72;;;9.70;99.90;;;;;;5024014;28;20629;-87
2024/02/10 02:55:30;;;;;;;15.65;7.25;;;9.80;99.90;;;;;;5035563;28;20029;-88
2024/02/10 02:57:59;;;;;;;14.02;6.78;;;9.70;99.90;;;;;;5036672;28;20022;-87
2024/02/10 03:00:24;;;;;;;16.38;7.28;;;9.70;99.90;;;;;;5028881;28;20466;-87
2024/02/10 03:02:51;;;;;;;14.18;7.25;;;9.70;99.90;;;;;;5025547;28;20121;-87
2024/02/10 03:05:17;;;;;;;12.02;7.13;;;9.70;99.90;;;;;;5028984;28;20064;-87
2024/02/10 03:07:46;;;;;;;10.02;6.72;;;9.70;99.90;;;;;;5030826;28;20025;-86
2024/02/10 03:10:13;;;;;;;14.02;7.28;;;9.70;99.90;;;;;;5035184;28;20112;-88
2024/02/10 03:12:39;;;;;;;16.55;7.53;;;9.70;99.90;;;;;;5021810;28;20600;-86
2024/02/10 03:15:05;;;;;;;11.95;7.28;;;9.70;99.90;;;;;;5032340;28;20021;-87
2024/02/10 03:17:31;;;;;;;12.98;7.60;;;9.70;99.90;;;;;;5028275;28;20475;-87
2024/02/10 03:20:00;;;;;;;14.30;8.40;;;9.70;99.90;;;;;;5032304;28;20028;-87
2024/02/10 03:22:27;;;;;;;19.92;9.30;;;9.70;99.90;;;;;;5044015;28;20108;-86
2024/02/10 03:24:55;;;;;;;16.88;8.32;;;9.70;99.90;;;;;;5031163;28;20530;-87
2024/02/10 03:27:21;;;;;;;16.27;8.48;;;9.70;99.90;;;;;;5032322;28;20032;-87
2024/02/10 03:29:48;;;;;;;20.50;9.48;;;9.70;99.90;;;;;;5025570;28;20025;-87
2024/02/10 03:32:14;;;;;;;15.27;8.15;;;9.70;99.90;;;;;;5024695;28;20083;-86
2024/02/10 03:34:40;;;;;;;16.45;8.63;;;9.70;99.90;;;;;;5028231;28;20108;-86
2024/02/10 03:37:05;;;;;;;16.42;7.53;;;9.70;99.90;;;;;;5033130;28;20590;-86
2024/02/10 03:39:31;;;;;;;15.23;8.55;;;9.70;99.90;;;;;;5031721;28;20228;-89
2024/02/10 03:41:57;;;;;;;18.27;8.90;;;9.70;99.90;;;;;;5028769;28;20071;-88
2024/02/10 03:44:23;;;;;;;17.65;8.52;;;9.70;99.90;;;;;;5026262;28;20407;-88
2024/02/10 03:46:55;;;;;;;15.55;8.70;;;9.70;99.90;;;;;;5030473;28;20732;-87
2024/02/10 03:49:21;;;;;;;18.38;8.35;;;9.70;99.90;;;;;;5024395;28;20407;-87
2024/02/10 03:51:47;;;;;;;20.60;9.52;;;9.70;99.90;;;;;;5027714;28;20037;-87
2024/02/10 03:54:12;;;;;;;22.85;9.05;;;9.70;99.90;;;;;;5033310;28;20129;-87
2024/02/10 03:56:42;;;;;;;20.98;7.93;;;9.70;99.90;;;;;;5046082;28;20092;-87
2024/02/10 03:59:08;;;;;;;16.95;7.60;;;9.70;99.90;;;;;;5030782;28;20026;-86
2024/02/10 04:01:34;;;;;;;16.65;8.40;;;9.70;99.90;;;;;;5028686;28;20031;-87
2024/02/10 04:04:02;;;;;;;15.88;7.82;;;9.70;99.90;;;;;;5031845;28;20028;-87
2024/02/10 04:06:28;;;;;;;19.38;8.15;;;9.70;99.90;;;;;;5025536;28;20034;-87
2024/02/10 04:08:55;;;;;;;17.63;8.57;;;9.70;99.90;;;;;;5036762;28;20022;-87
2024/02/10 04:11:20;;;;;;;15.02;7.75;;;9.70;99.90;;;;;;5033672;28;20036;-87
2024/02/10 04:13:47;;;;;;;14.30;8.00;;;9.70;99.90;;;;;;5030449;28;20088;-86
2024/02/10 04:16:12;;;;;;;15.65;8.57;;;9.70;99.90;;;;;;5030438;28;20030;-87
2024/02/10 04:18:42;;;;;;;18.10;7.75;;;9.70;99.90;;;;;;5026557;28;20037;-87
2024/02/10 04:21:08;;;;;;;12.37;7.43;;;9.70;99.90;;;;;;5030342;28;20061;-86
2024/02/10 04:23:34;;;;;;;12.18;7.72;;;9.70;99.90;;;;;;5029095;28;20549;-87
2024/02/10 04:26:07;;;;;;;12.55;8.20;;;9.70;99.90;;;;;;5045191;28;20026;-87
2024/02/10 04:28:35;;;;;;;15.77;7.15;;;9.70;99.90;;;;;;5030676;28;20017;-86
2024/02/10 04:31:01;;;;;;;18.20;8.75;;;9.70;99.90;;;;;;5025953;28;20010;-87
2024/02/10 04:33:26;;;;;;;12.20;7.45;;;9.70;99.90;;;;;;5024618;28;20033;-87
2024/02/10 04:35:52;;;;;;;17.35;8.32;;;9.70;99.90;;;;;;5031462;28;20099;-88
2024/02/10 04:38:18;;;;;;;16.70;7.28;;;9.70;99.90;;;;;;5034026;28;20025;-86
2024/02/10 04:40:45;;;;;;;12.95;7.60;;;9.60;99.90;;;;;;5028313;28;20013;-87
2024/02/10 04:43:11;;;;;;;14.05;7.88;;;9.70;99.90;;;;;;5029687;28;20029;-88
2024/02/10 04:45:37;;;;;;;16.42;7.88;;;9.60;99.90;;;;;;5020236;28;20022;-87
2024/02/10 04:48:04;;;;;;;15.93;7.68;;;9.60;99.90;;;;;;5033923;28;20678;-87
2024/02/10 04:50:30;;;;;;;17.70;8.88;;;9.70;99.90;;;;;;5030982;28;20027;-87
2024/02/10 04:52:57;;;;;;;14.95;7.35;;;9.70;99.90;;;;;;5028902;28;20029;-87
2024/02/10 04:55:23;;;;;;;15.70;8.18;;;9.70;99.90;;;;;;5032390;28;20076;-87
2024/02/10 04:57:50;;;;;;;13.52;7.28;;;9.60;99.90;;;;;;5028284;28;20025;-87
2024/02/10 05:00:17;;;;;;;17.85;8.40;;;9.70;99.90;;;;;;5030491;28;20028;-87
2024/02/10 05:02:47;;;;;;;15.63;8.02;;;9.70;99.90;;;;;;5030542;28;20116;-87
2024/02/10 05:05:14;;;;;;;16.92;7.70;;;9.60;99.90;;;;;;5031870;28;20029;-88
2024/02/10 05:07:47;;;;;;;15.25;7.32;;;9.60;99.90;;;;;;5019688;28;20041;-88
2024/02/10 05:10:15;;;;;;;17.92;8.02;;;9.60;99.90;;;;;;5025862;28;20037;-87
2024/02/10 05:12:44;;;;;;;15.23;7.50;;;9.60;99.90;;;;;;5026730;28;20018;-87
2024/02/10 05:15:10;;;;;;;11.83;7.27;;;9.60;99.90;;;;;;5031916;28;20025;-87
2024/02/10 05:17:41;;;;;;;11.65;7.00;;;9.60;99.90;;;;;;5023037;28;20113;-87
2024/02/10 05:20:08;;;;;;;;;;;9.60;99.90;;;;;;5027225;28;20547;-86
2024/02/10 05:22:34;;;;;;;11.95;7.00;;;9.60;99.90;;;;;;5029010;28;19996;-87
2024/02/10 05:25:04;;;;;;;14.38;7.93;;;9.70;99.90;;;;;;5027071;28;20079;-87
2024/02/10 05:27:30;;;;;;;14.07;8.13;;;9.60;99.90;;;;;;5034246;28;20051;-87
2024/02/10 05:29:56;;;;;;;11.40;7.53;;;9.60;99.90;;;;;;5026094;28;20014;-87
2024/02/10 05:32:22;;;;;;;22.55;8.23;;;9.60;99.90;;;;;;5049190;28;20402;-88
2024/02/10 05:34:49;;;;;;;13.88;7.72;;;9.60;99.90;;;;;;5028726;28;20542;-87
2024/02/10 05:37:14;;;;;;;14.50;7.55;;;9.60;99.90;;;;;;5026619;28;20029;-87
2024/02/10 05:39:40;;;;;;;13.40;8.05;;;9.70;99.90;;;;;;5025107;28;20483;-87
2024/02/10 05:42:06;;;;;;;13.60;7.82;;;9.60;99.90;;;;;;5028896;28;20069;-87
2024/02/10 05:44:32;;;;;;;16.20;8.10;;;9.60;99.90;;;;;;5024735;28;20029;-87
2024/02/10 05:47:00;;;;;;;15.15;8.10;;;9.70;99.90;;;;;;5021437;28;20068;-87
2024/02/10 05:49:26;;;;;;;12.32;7.32;;;9.70;99.90;;;;;;5026590;28;20024;-87
2024/02/10 05:51:52;;;;;;;13.98;7.72;;;9.60;99.90;;;;;;5020050;28;20022;-88
2024/02/10 05:54:17;;;;;;;13.82;7.95;;;9.70;99.90;;;;;;5022038;28;20029;-87
2024/02/10 05:56:43;;;;;;;15.40;7.75;;;9.60;99.90;;;;;;5019521;28;20021;-87
2024/02/10 05:59:09;;;;;;;16.02;7.65;;;9.70;99.90;;;;;;5034640;28;20025;-86
2024/02/10 06:01:35;;;;;;;13.82;7.30;;;9.60;99.90;;;;;;5034528;28;20024;-86
2024/02/10 06:04:01;;;;;;;13.10;7.30;;;9.70;99.90;;;;;;5031459;28;20022;-87
2024/02/10 06:06:27;;;;;;;14.13;7.43;;;9.60;99.90;;;;;;5029791;28;20021;-87
2024/02/10 06:08:52;;;;;;;15.25;7.47;;;9.60;99.90;;;;;;5026063;28;20018;-87
2024/02/10 06:11:19;;;;;;;11.90;7.13;;;9.60;99.90;;;;;;5026165;28;20021;-87
2024/02/10 06:13:50;;;;;;;11.80;7.45;;;9.60;99.90;;;;;;5021789;28;20029;-87
2024/02/10 06:16:15;;;;;;;12.85;7.22;;;9.70;99.90;;;;;;5032438;28;20025;-88
2024/02/10 06:18:41;;;;;;;11.77;7.43;;;9.60;99.90;;;;;;5030137;28;20032;-88
2024/02/10 06:21:08;;;;;;;18.23;7.55;;;9.70;99.90;;;;;;5033274;28;20086;-87
2024/02/10 06:23:34;;;;;;;16.23;8.25;;;9.60;99.90;;;;;;5035545;28;20032;-88
2024/02/10 06:25:59;;;;;;;14.45;7.85;;;9.70;99.90;;;;;;5030303;28;20025;-85
2024/02/10 06:28:25;;;;;;;16.77;8.57;;;9.60;99.90;;;;;;5028403;28;20022;-86
2024/02/10 06:30:52;;;;;;;16.35;8.02;;;9.70;99.90;;;;;;5020047;28;20026;-87
2024/02/10 06:33:28;;;;;;;14.13;7.70;;;9.70;99.90;;;;;;5031593;28;20416;-89
2024/02/10 06:35:58;;;;;;;19.65;8.10;;;9.70;99.90;;;;;;5026836;28;20504;-88
2024/02/10 06:38:32;;;;;;;13.25;7.65;;;9.70;99.90;;;;;;5027004;28;20018;-87
2024/02/10 06:41:01;;;;;;;17.33;7.65;;;9.70;99.90;;;;;;5026234;28;20026;-88
2024/02/10 06:43:27;;;;;;;23.77;9.10;;;9.60;99.90;;;;;;5031736;28;20013;-89
2024/02/10 06:45:52;;;;;;;12.20;7.60;;;9.70;99.90;;;;;;5025200;28;20551;-88
2024/02/10 06:48:19;;;;;;;13.50;7.65;;;9.70;99.90;;;;;;5024766;28;20494;-87
2024/02/10 06:50:45;;;;;;;13.38;7.40;;;9.70;99.90;;;;;;5024833;28;20102;-87
2024/02/10 06:53:10;;;;;;;14.75;8.00;;;9.70;99.90;;;;;;5022635;28;20539;-89
2024/02/10 06:55:36;;;;;;;15.23;7.47;;;9.70;99.90;;;;;;5026871;28;20052;-89
2024/02/10 06:58:02;;;;;;;13.93;7.65;;;9.60;99.90;;;;;;5032134;28;20545;-88
2024/02/10 07:00:40;;;;;;;14.00;7.90;;;9.60;99.90;;;;;;5031854;28;20099;-87
2024/02/10 07:03:06;;;;;;;14.68;7.60;;;9.70;99.90;;;;;;5023283;28;20495;-88
2024/02/10 07:05:37;;;;;;;13.90;7.88;;;9.70;99.90;;;;;;5024647;28;20651;-87
2024/02/10 07:08:05;;;;;;;18.35;8.40;;;9.70;99.90;;;;;;5031199;28;20562;-88
2024/02/10 07:10:31;;;;;;;16.08;7.85;;;9.70;99.90;;;;;;5031595;28;20108;-88
2024/02/10 07:12:56;;;;;;;14.50;8.23;;;9.70;99.90;;;;;;5043188;28;20025;-89
2024/02/10 07:15:23;;;;;;;14.25;8.15;;;9.70;99.90;;;;;;5032026;28;20036;-87
2024/02/10 07:17:52;;;;;;;13.60;8.05;;;9.70;99.90;;;;;;5030000;28;20021;-88
2024/02/10 07:20:20;;;;;;;16.85;8.88;;;9.60;99.90;;;;;;5034816;28;20422;-88
2024/02/10 07:22:52;;;;;;;16.70;9.13;;;9.60;99.90;;;;;;5029817;28;20013;-88
2024/02/10 07:25:21;;;;;;;16.00;8.48;;;9.70;99.90;;;;;;5028401;28;20033;-89
2024/02/10 07:27:48;;;;;;;17.03;9.07;;;9.60;99.90;;;;;;5032486;28;20028;-87
2024/02/10 07:30:14;;;;;;;16.75;8.20;;;9.70;99.90;;;;;;5033180;28;20418;-87
2024/02/10 07:32:40;;;;;;;18.55;9.85;;;9.70;99.90;;;;;;5035297;28;20021;-88
2024/02/10 07:35:06;;;;;;;15.80;9.27;;;9.70;99.90;;;;;;5030285;28;20686;-88
2024/02/10 07:37:32;;;;;;;17.92;9.15;;;9.70;99.90;;;;;;5034398;28;20025;-87
2024/02/10 07:39:58;;;;;;;14.65;9.13;;;9.70;99.90;;;;;;5037057;28;20076;-88
2024/02/10 07:42:25;;;;;;;14.70;7.38;;;9.70;99.90;;;;;;5033346;28;20032;-90
2024/02/10 07:44:55;;;;;;;12.85;7.72;;;9.70;99.90;;;;;;5032583;28;20049;-89
2024/02/10 07:47:21;;;;;;;16.87;9.00;;;9.70;99.90;;;;;;5036921;28;20060;-88
2024/02/10 07:49:50;;;;;;;15.63;8.25;;;9.70;99.90;;;;;;5031879;28;20288;-88
2024/02/10 07:52:17;;;;;;;14.88;8.35;;;9.70;99.90;;;;;;5027279;28;20014;-87
2024/02/10 07:54:45;;;;;;;19.33;9.25;;;9.70;99.90;;;;;;5022700;28;20021;-87
2024/02/10 07:57:19;;;;;;;13.38;8.48;;;9.70;99.90;;;;;;5033123;28;20029;-88
2024/02/10 07:59:50;;;;;;;23.20;9.75;;;9.70;99.90;;;;;;5033593;28;20024;-87
2024/02/10 08:02:16;;;;;;;15.07;8.25;;;9.70;99.90;;;;;;5032865;28;20491;-87
2024/02/10 08:04:45;;;;;;;14.50;8.63;;;9.70;99.90;;;;;;5027444;28;20064;-88
2024/02/10 08:07:11;;;;;;;19.75;8.90;;;9.70;99.90;;;;;;5031970;28;20021;-87
2024/02/10 08:09:37;;;;;;;17.30;9.07;;;9.70;99.90;;;;;;5033079;28;20014;-88
2024/02/10 08:12:03;;;;;;;18.60;9.75;;;9.70;99.90;;;;;;5028761;28;20495;-88
2024/02/10 08:14:29;;;;;;;17.30;9.30;;;9.70;99.90;;;;;;5036779;28;20030;-87
2024/02/10 08:16:54;;;;;;;16.65;9.13;;;9.70;99.90;;;;;;5031628;28;20022;-87
2024/02/10 08:19:20;;;;;;;15.63;9.05;;;9.70;99.90;;;;;;5030859;28;20030;-87
2024/02/10 08:21:46;;;;;;;14.13;8.52;;;9.70;99.90;;;;;;5027628;28;20048;-87
2024/02/10 08:24:11;;;;;;;19.45;8.88;;;9.70;99.90;;;;;;5026118;28;20025;-87
2024/02/10 08:26:40;;;;;;;16.77;8.65;;;9.70;99.90;;;;;;5028984;28;20026;-87
2024/02/10 08:29:05;;;;;;;17.75;8.77;;;9.70;99.90;;;;;;5027719;28;20464;-87
2024/02/10 08:31:34;;;;;;;15.93;8.43;;;9.70;99.90;;;;;;5029107;28;20022;-88
2024/02/10 08:34:00;;;;;;;16.52;8.85;;;9.70;99.90;;;;;;5030572;28;20033;-87
2024/02/10 08:36:28;;;;;;;19.15;9.20;;;9.70;99.90;;;;;;5029888;28;20163;-87
2024/02/10 08:38:56;;;;;;;13.98;9.02;;;9.70;99.90;;;;;;5031502;28;20030;-86
2024/02/10 08:41:22;;;;;;;17.85;9.18;;;9.70;99.90;;;;;;5030592;28;20024;-89
2024/02/10 08:43:48;;;;;;;15.65;8.35;;;9.70;99.90;;;;;;5025735;28;20541;-87
2024/02/10 08:46:15;;;;;;;16.75;8.98;;;9.70;99.90;;;;;;5028503;28;20694;-86
2024/02/10 08:48:43;;;;;;;18.02;9.05;;;9.70;99.90;;;;;;5046950;28;20026;-88
2024/02/10 08:51:13;;;;;;;16.55;8.68;;;9.70;99.90;;;;;;5032398;28;20029;-87
2024/02/10 08:53:42;;;;;;;14.88;7.68;;;9.70;99.90;;;;;;5033821;28;20021;-87
2024/02/10 08:56:11;;;;;;;16.55;8.82;;;9.70;99.90;;;;;;5031420;28;20064;-88
2024/02/10 08:58:40;;;;;;;14.15;8.13;;;9.70;99.90;;;;;;5027542;28;20641;-86
2024/02/10 09:01:15;;;;;;;16.38;8.55;;;9.70;99.90;;;;;;5020297;28;20036;-88
2024/02/10 09:03:52;;;;;;;17.08;8.98;;;9.70;99.90;;;;;;5024743;28;20033;-87
2024/02/10 09:06:21;;;;;;;16.55;8.70;;;9.70;99.90;;;;;;5026650;28;20025;-87
2024/02/10 09:08:50;;;;;;;19.40;9.40;;;9.70;99.90;;;;;;5032463;28;20241;-88
2024/02/10 09:11:16;;;;;;;14.02;8.38;;;9.70;99.90;;;;;;5032230;28;20100;-86
2024/02/10 09:13:43;;;;;;;14.73;7.90;;;9.70;99.90;;;;;;5022397;28;20028;-87
2024/02/10 09:16:09;;;;;;;24.33;8.98;;;9.70;99.90;;;;;;5025370;28;20026;-87
2024/02/10 09:18:34;;;;;;;16.73;8.50;;;9.70;99.90;;;;;;5031262;28;20032;-87
2024/02/10 09:21:01;;;;;;;15.32;8.43;;;9.70;99.90;;;;;;5030105;28;20022;-86
2024/02/10 09:23:29;;;;;;;15.88;8.30;;;9.70;99.90;;;;;;5030791;28;20067;-88
2024/02/10 09:25:54;;;;;;;16.58;8.88;;;9.70;99.90;;;;;;5030676;28;20045;-87
2024/02/10 09:28:20;;;;;;;17.38;9.60;;;9.70;99.90;;;;;;5031063;28;20487;-86
2024/02/10 09:30:46;;;;;;;16.02;9.13;;;9.70;99.90;;;;;;5028516;28;20025;-87
2024/02/10 09:33:24;;;;;;;15.57;8.40;;;9.70;99.90;;;;;;5025054;28;20026;-87
2024/02/10 09:35:50;;;;;;;15.35;8.95;;;9.80;99.90;;;;;;5031307;28;20040;-86
2024/02/10 09:38:16;;;;;;;20.02;9.20;;;9.70;99.90;;;;;;5030157;28;20412;-88
2024/02/10 09:40:45;;;;;;;17.63;9.25;;;9.70;99.90;;;;;;5031271;28;20114;-87
2024/02/10 09:43:17;;;;;;;20.63;9.70;;;9.70;99.90;;;;;;5032231;28;20025;-89
2024/02/10 09:45:45;;;;;;;16.63;9.40;;;9.70;99.90;;;;;;5022620;28;20101;-88
2024/02/10 09:48:15;;;;;;;20.60;9.70;;;9.70;99.90;;;;;;5028183;28;20104;-87
2024/02/10 09:50:40;;;;;;;15.18;9.68;;;9.70;99.90;;;;;;5026925;28;20658;-88
2024/02/10 09:53:06;;;;;;;17.55;9.70;;;9.70;99.90;;;;;;5027681;28;20029;-88
2024/02/10 09:55:32;;;;;;;17.00;9.50;;;9.70;99.90;;;;;;5026478;28;20411;-87
2024/02/10 09:58:00;;;;;;;20.73;10.02;;;9.70;99.90;;;;;;5035379;28;20025;-87
2024/02/10 10:00:25;;;;;;;16.60;8.93;;;9.70;99.90;;;;;;5026622;28;20026;-89
2024/02/10 10:02:54;;;;;;;17.35;9.70;;;9.70;99.90;;;;;;5023004;28;20014;-87
2024/02/10 10:05:20;;;;;;;18.08;10.13;;;9.70;99.90;;;;;;5027147;28;20021;-88
2024/02/10 10:07:47;;;;;;;19.20;9.68;;;9.70;99.90;;;;;;5023675;28;20021;-87
2024/02/10 10:10:12;;;;;;;16.67;9.90;;;9.70;99.90;;;;;;5029946;28;20092;-88
2024/02/10 10:12:38;;;;;;;18.08;8.98;;;9.70;99.90;;;;;;5036741;28;20459;-88
2024/02/10 10:15:04;;;;;;;18.10;9.45;;;9.70;99.90;;;;;;5027256;28;20021;-87
2024/02/10 10:17:36;;;;;;;19.13;9.82;;;9.70;99.90;;;;;;5021066;28;20036;-89
2024/02/10 10:20:09;;;;;;;15.15;8.68;;;9.70;99.90;;;;;;5026067;28;20021;-88
2024/02/10 10:22:38;;;;;;;14.32;8.35;;;9.70;99.90;;;;;;5030348;28;20017;-88
2024/02/10 10:25:05;;;;;;;14.50;8.70;;;9.70;99.90;;;;;;5029932;28;20018;-88
2024/02/10 10:27:31;;;;;;;18.48;9.30;;;9.70;99.90;;;;;;5026592;28;20017;-88
2024/02/10 10:29:57;;;;;;;16.75;9.75;;;9.70;99.90;;;;;;5029956;28;20027;-88
2024/02/10 10:32:30;;;;;;;20.08;8.65;;;9.70;99.90;;;;;;5031125;28;20022;-89
2024/02/10 10:34:58;;;;;;;16.40;9.32;;;9.70;99.90;;;;;;5050229;28;20017;-87
2024/02/10 10:37:25;;;;;;;14.93;8.68;;;9.70;99.90;;;;;;5037644;28;20112;-88
2024/02/10 10:39:53;;;;;;;15.07;9.00;;;9.70;99.90;;;;;;5034475;28;20029;-88
2024/02/10 10:42:22;;;;;;;15.95;9.43;;;9.70;99.90;;;;;;5044245;28;20025;-88
2024/02/10 10:44:51;;;;;;;17.00;9.52;;;9.70;99.90;;;;;;5029568;28;20028;-89
2024/02/10 10:47:23;;;;;;;16.65;8.98;;;9.70;99.90;;;;;;5032411;28;20076;-87
2024/02/10 10:49:52;;;;;;;17.42;9.27;;;9.70;99.90;;;;;;5036689;28;20017;-88
2024/02/10 10:52:20;;;;;;;17.33;9.32;;;9.70;99.90;;;;;;5037216;28;20018;-88
2024/02/10 10:54:48;;;;;;;12.68;8.13;;;9.70;99.90;;;;;;5031980;28;20076;-87
2024/02/10 10:57:25;;;;;;;14.80;8.43;;;9.70;99.90;;;;;;5033548;28;20761;-87
2024/02/10 11:00:15;;;;;;;17.98;8.90;;;9.70;99.90;;;;;;5044724;28;20017;-88
2024/02/10 11:02:42;;;;;;;13.68;8.45;;;9.70;99.90;;;;;;5048968;28;20030;-88
2024/02/10 11:05:13;;;;;;;20.02;9.40;;;9.70;99.90;;;;;;5026218;28;20445;-88
2024/02/10 11:07:42;;;;;;;15.57;8.90;;;9.70;99.90;;;;;;5045062;28;20649;-88
2024/02/10 11:10:09;;;;;;;15.48;8.43;;;9.70;99.90;;;;;;5031316;28;20014;-88
2024/02/10 11:12:35;;;;;;;15.35;9.00;;;9.70;99.90;;;;;;5041109;28;20024;-88
2024/02/10 11:15:02;;;;;;;15.88;8.60;;;9.70;99.90;;;;;;5025466;28;20017;-88
2024/02/10 11:17:29;;;;;;;17.65;9.13;;;9.80;99.90;;;;;;5022329;28;20021;-87
2024/02/10 11:20:03;;;;;;;17.73;9.75;;;9.70;99.90;;;;;;5030059;28;20013;-88
2024/02/10 11:22:42;;;;;;;20.85;9.00;;;9.70;99.90;;;;;;5033206;28;20111;-89
2024/02/10 11:25:11;;;;;;;21.42;9.85;;;9.70;99.90;;;;;;5029919;28;20033;-89
2024/02/10 11:27:38;;;;;;;17.08;9.88;;;9.80;99.90;;;;;;5035302;28;20028;-89
2024/02/10 11:30:04;;;;;;;22.45;10.07;;;9.70;99.90;;;;;;5025685;28;20030;-88
2024/02/10 11:32:31;;;;;;;17.35;9.50;;;9.70;99.90;;;;;;5045409;28;20018;-89
2024/02/10 11:34:57;;;;;;;20.13;9.70;;;9.80;99.90;;;;;;5032919;28;20013;-87
2024/02/10 11:37:25;;;;;;;15.10;8.30;;;9.70;99.90;;;;;;5025207;28;20071;-88
2024/02/10 11:39:54;;;;;;;17.13;9.48;;;9.70;99.90;;;;;;5034384;28;20116;-88
2024/02/10 11:42:22;;;;;;;16.13;8.73;;;9.70;99.90;;;;;;5038145;28;20021;-87
2024/02/10 11:44:48;;;;;;;18.45;8.88;;;9.80;99.90;;;;;;5026706;28;20109;-88
2024/02/10 11:47:13;;;;;;;22.90;9.48;;;9.80;99.90;;;;;;5032159;28;20108;-88
2024/02/10 11:49:39;;;;;;;21.00;9.80;;;9.80;99.90;;;;;;5035694;28;20045;-88
2024/02/10 11:52:08;;;;;;;17.10;9.52;;;9.80;99.90;;;;;;5049743;28;20020;-88
2024/02/10 11:54:37;;;;;;;19.40;9.43;;;9.80;99.90;;;;;;5034142;28;20045;-89
2024/02/10 11:57:07;;;;;;;18.23;9.60;;;9.80;99.90;;;;;;5033823;28;20025;-89
2024/02/10 11:59:34;;;;;;;18.98;10.82;;;9.80;99.90;;;;;;5024610;28;20018;-87
2024/02/10 12:02:01;;;;;;;21.77;10.32;;;9.80;99.90;;;;;;5031504;28;20078;-88
2024/02/10 12:04:28;;;;;;;23.98;11.20;;;9.80;99.90;;;;;;5043672;28;20024;-87
2024/02/10 12:06:54;;;;;;;19.75;10.40;;;9.80;99.90;;;;;;5032920;28;20017;-89
2024/02/10 12:09:20;;;;;;;18.60;9.70;;;9.80;99.90;;;;;;5030079;28;20029;-89
2024/02/10 12:11:48;;;;;;;23.10;11.07;;;9.80;99.90;;;;;;5031088;28;20021;-87
2024/02/10 12:14:14;;;;;;;23.85;11.73;;;9.80;99.90;;;;;;5025031;28;20024;-87
2024/02/10 12:16:44;;;;;;;19.90;11.23;;;9.90;99.90;;;;;;5026894;28;20175;-89
2024/02/10 12:19:10;;;;;;;20.88;11.18;;;9.90;99.90;;;;;;5033404;28;20049;-90
2024/02/10 12:21:38;;;;;;;22.33;10.98;;;9.90;99.90;;;;;;5039250;28;20861;-87
2024/02/10 12:24:04;;;;;;;21.17;11.25;;;9.90;99.90;;;;;;5032393;28;20048;-87
2024/02/10 12:26:29;;;;;;;25.13;11.57;;;9.90;99.90;;;;;;5024291;28;20202;-89
2024/02/10 12:28:55;;;;;;;25.05;12.40;;;9.90;99.90;;;;;;5035211;28;20364;-87
2024/02/10 12:31:21;;;;;;;21.60;11.65;;;9.90;99.90;;;;;;5019582;28;20024;-88
2024/02/10 12:33:54;;;;;;;24.17;12.82;;;9.90;99.90;;;;;;5030595;28;20026;-89
2024/02/10 12:36:23;;;;;;;31.63;12.70;;;9.90;99.90;;;;;;5028886;28;20040;-88
2024/02/10 12:38:50;;;;;;;25.73;12.20;;;9.90;99.90;;;;;;5019968;28;20045;-89
2024/02/10 12:41:17;;;;;;;21.60;11.98;;;10.00;99.90;;;;;;5017925;28;20022;-90
2024/02/10 12:43:43;;;;;;;31.20;13.65;;;10.00;99.90;;;;;;5022852;28;20491;-88
2024/02/10 12:46:12;;;;;;;25.23;12.30;;;10.00;99.90;;;;;;5028898;28;20330;-89